Buffalo, WY

9:30 AM MDT on October 22, 2014 (GMT -0600)
Esponda Ranch | Change Station
CLOSE
Current Station
Personal Weather Station
Location: Buffalo, WY
Elevation: 4665 ft
Nearby Weather Stations

Elev 4665 ft 44.32 °N, 106.67 °W | Updated 1 minute ago

Clear
Clear
48.4 °F
Feels Like 48 °F
N
3.0
Wind Variable Wind from SSE
Gusts 10.0 mph

Today
High -- | Low -- °F
--% Chance of Precip.
Yesterday
High -- | Low -- °F
Precip. -- in
7:30 AM 6:11 PM
Waning Crescent, 2% visible
Pressure 30.00 in
Visibility 10.0 miles
Clouds Clear
Windchill 48 °F
Dew Point 32 °F
Humidity 52%
Rainfall 0.00 in
Snow Depth 0 in , 0 in
UV 1 out of 12
Pollen 2.10 out of 12
Air Quality Not available.
Flu Activity Sporadic
METAR KBYG 221453Z AUTO 18004KT 10SM CLR 06/M03 A3007 RMK AO2 SLP157 T00611028 51011

More Conditions Fewer Conditions

Pressure 30.00 in
Visibility 10.0 miles
Clouds Clear
Windchill 48 °F
Dew Point 32 °F
Humidity 52%
Rainfall 0.00 in
Snow Depth 0 in , 0 in
UV 1 out of 12
Pollen 2.10 out of 12
Air Quality Not available.
Flu Activity Sporadic
METAR KBYG 221453Z AUTO 18004KT 10SM CLR 06/M03 A3007 RMK AO2 SLP157 T00611028 51011

More Conditions Fewer Conditions

10-Day Weather Forecast

Almanac

Astronomy

Oct. 22, 2014 Rise Set
Actual Time 7:30 AM MDT 6:11 PM MDT
Civil Twilight 7:01 AM MDT 6:40 PM MDT
Nautical Twilight 6:27 AM MDT 7:14 PM MDT
Astronomical Twilight 5:53 AM MDT 7:47 PM MDT
Moon 6:12 AM MDT 5:41 PM MDT
Length of Visible Light 11h 39m
Length of Day
10h 40m
Tomorrow will be 2m 53s shorter.
Waning Crescent, 2% of the Moon is Illuminated
Today
Waning Crescent
Oct 23
New
Oct 30
First Quarter
Nov 6
Full
Nov 14
Last Quarter

Today's Extremes

State Highs State Lows

Community

WunderPhotos

Upload Photos

1,763,949 photos uploaded!

Nearby

Snow Depth

Station Depth Elevation
Hansen Sawmill 0 in 8360 ft
Cloud Peak Reservoir 0 in 9860 ft
Powder River Pass 0 in 9480 ft
Big Goose 1 in 7990 ft
Dome Lake 0 in 8880 ft

Earthquake Activity

City Distance Mag. Time & Date
No recent earthquake activity has been reported nearby.
Minimum magnitude displayed is 2.5.

Coastal Water Temperatures

Place Temperature
No Stations Reporting

Nearby Weather Stations